Red Hill, South Carolina
Current Conditions -  °F | °C
As of 9:35 AM on Friday 28 Nov 2014 (Local Time) from KCDN Reporting Station
Clear Clear  
Wind Chill: 36°   Ceiling: Unl
Heat Index: 36°   Visibility: 10mi
Dew Point: 25°   Wind: 3mph
Humidity: 65%   Direction: 360°N
Pressure: 30.42"   Gusts: NA
Location:  34.2974°N, 80.6089°W
Report Text: KCDN 281435Z AUTO 36003KT 10SM CLR 02/M04 A3042 RMK AO2 TSNO
Loading
Personal Weather Stations






























Interactive Weather Map New forecast layout! Learn more

10-Day Weather Forecast

Advertisements
Track Severe Weather on mobile